createdAt,value
2023-05-14T00:01:54.350Z,98528.22
2023-05-14T00:04:21.002Z,98528.34
2023-05-14T00:06:47.717Z,98517.41
2023-05-14T00:09:17.422Z,98529.94
2023-05-14T00:11:44.574Z,98531.28
2023-05-14T00:14:11.075Z,98523.31
2023-05-14T00:16:38.031Z,98521.63
2023-05-14T00:19:07.049Z,98524.22
2023-05-14T00:21:33.854Z,98512.41
2023-05-14T00:24:00.654Z,98518.72
2023-05-14T00:26:27.788Z,98507.66
2023-05-14T00:28:54.577Z,98513.81
2023-05-14T00:31:23.888Z,98511.41
2023-05-14T00:33:52.630Z,98504.47
2023-05-14T00:36:19.574Z,98504.25
2023-05-14T00:38:46.128Z,98510.13
2023-05-14T00:41:12.677Z,98503.97
2023-05-14T00:43:40.106Z,98505.59
2023-05-14T00:46:08.851Z,98497.53
2023-05-14T00:48:36.109Z,98501.09
2023-05-14T00:51:10.140Z,98496.13
2023-05-14T00:53:37.351Z,98497.88
2023-05-14T00:56:03.969Z,98493.72
2023-05-14T00:58:32.323Z,98482.91
2023-05-14T01:01:00.031Z,98495.28
2023-05-14T01:03:29.121Z,98491.34
2023-05-14T01:06:17.621Z,98488.97
2023-05-14T01:09:05.537Z,98498.69
2023-05-14T01:11:49.397Z,98489.91
2023-05-14T01:14:30.730Z,98488.88
2023-05-14T01:16:58.729Z,98491.53
2023-05-14T01:19:45.005Z,98490.50
2023-05-14T01:22:20.341Z,98493.16
2023-05-14T01:24:48.167Z,98489.81
2023-05-14T01:27:21.743Z,98489.81
2023-05-14T01:29:53.743Z,98489.81
2023-05-14T01:32:38.589Z,98497.09
2023-05-14T01:35:05.757Z,98491.28
2023-05-14T01:37:32.233Z,98488.38
2023-05-14T01:40:03.556Z,98488.97
2023-05-14T01:42:31.305Z,98486.66
2023-05-14T01:44:59.498Z,98489.00
2023-05-14T01:47:27.030Z,98490.41
2023-05-14T01:49:54.404Z,98484.63
2023-05-14T01:52:21.661Z,98481.59
2023-05-14T01:54:48.669Z,98485.06
2023-05-14T01:57:16.258Z,98479.66
2023-05-14T01:59:44.312Z,98472.22
2023-05-14T02:02:10.778Z,98476.03
2023-05-14T02:04:39.026Z,98479.41
2023-05-14T02:07:08.402Z,98465.41
2023-05-14T02:09:35.190Z,98466.31
2023-05-14T02:12:01.914Z,98469.47
2023-05-14T02:14:28.837Z,98467.13
2023-05-14T02:16:57.227Z,98463.69
2023-05-14T02:19:25.310Z,98462.88
2023-05-14T02:21:52.333Z,98467.13
2023-05-14T02:24:20.102Z,98462.53
2023-05-14T02:26:46.588Z,98465.31
2023-05-14T02:29:13.381Z,98456.03
2023-05-14T02:31:41.901Z,98456.53
2023-05-14T02:34:08.678Z,98452.59
2023-05-14T02:36:36.938Z,98458.38
2023-05-14T02:39:04.617Z,98453.84
2023-05-14T02:41:32.611Z,98457.44
2023-05-14T02:43:59.090Z,98458.34
2023-05-14T02:46:26.052Z,98454.06
2023-05-14T02:48:52.821Z,98451.66
2023-05-14T02:51:21.163Z,98451.88
2023-05-14T02:53:52.869Z,98460.28
2023-05-14T02:56:19.670Z,98460.28
2023-05-14T02:58:46.431Z,98464.34
2023-05-14T03:01:12.954Z,98459.00
2023-05-14T03:03:40.006Z,98462.72
2023-05-14T03:06:08.483Z,98460.31
2023-05-14T03:08:38.494Z,98454.69
2023-05-14T03:11:05.364Z,98450.03
2023-05-14T03:13:38.318Z,98444.84
2023-05-14T03:16:06.055Z,98448.78
2023-05-14T03:18:33.667Z,98452.38
2023-05-14T03:21:04.903Z,98444.81
2023-05-14T03:23:35.092Z,98445.63
2023-05-14T03:26:06.979Z,98447.97
2023-05-14T03:28:33.458Z,98447.25
2023-05-14T03:31:01.219Z,98439.66
2023-05-14T03:33:29.591Z,98443.13
2023-05-14T03:35:56.101Z,98448.88
2023-05-14T03:38:22.859Z,98438.84
2023-05-14T03:40:49.346Z,98440.56
2023-05-14T03:43:17.709Z,98441.94
2023-05-14T03:45:44.208Z,98438.94
2023-05-14T03:48:11.021Z,98441.72
2023-05-14T03:50:38.705Z,98435.50
2023-05-14T03:53:07.768Z,98437.31
2023-05-14T03:55:36.937Z,98439.75
2023-05-14T03:58:07.339Z,98440.31
2023-05-14T04:00:33.837Z,98443.13
2023-05-14T04:03:09.423Z,98437.09
2023-05-14T04:05:36.859Z,98443.56
2023-05-14T04:08:03.956Z,98446.81
2023-05-14T04:10:34.444Z,98439.28
2023-05-14T04:13:03.474Z,98437.06
2023-05-14T04:15:30.227Z,98436.50
2023-05-14T04:17:57.714Z,98440.72
2023-05-14T04:20:25.893Z,98431.03
2023-05-14T04:22:52.953Z,98435.28
2023-05-14T04:25:20.392Z,98433.03
2023-05-14T04:27:49.964Z,98435.22
2023-05-14T04:30:18.297Z,98433.00
2023-05-14T04:32:45.154Z,98425.88
2023-05-14T04:35:13.207Z,98429.72
2023-05-14T04:37:41.800Z,98431.72
2023-05-14T04:40:08.988Z,98430.75
2023-05-14T04:42:36.476Z,98434.28
2023-05-14T04:45:05.098Z,98429.44
2023-05-14T04:47:31.828Z,98428.13
2023-05-14T04:49:59.188Z,98430.91
2023-05-14T04:52:26.857Z,98431.56
2023-05-14T04:54:57.062Z,98425.50
2023-05-14T04:57:23.401Z,98430.22
2023-05-14T04:59:50.085Z,98421.63
2023-05-14T05:02:19.993Z,98422.28
2023-05-14T05:04:49.710Z,98431.69
2023-05-14T05:07:16.600Z,98426.75
2023-05-14T05:09:44.191Z,98423.19
2023-05-14T05:12:10.936Z,98425.69
2023-05-14T05:14:37.668Z,98429.84
2023-05-14T05:17:05.716Z,98436.31
2023-05-14T05:19:42.492Z,98427.69
2023-05-14T05:22:10.492Z,98434.03
2023-05-14T05:24:38.832Z,98433.91
2023-05-14T05:27:06.026Z,98434.94
2023-05-14T05:29:34.587Z,98432.97
2023-05-14T05:32:02.302Z,98430.47
2023-05-14T05:34:29.084Z,98423.16
2023-05-14T05:36:57.150Z,98434.53
2023-05-14T05:39:25.843Z,98432.53
2023-05-14T05:41:53.448Z,98441.88
2023-05-14T05:44:20.607Z,98441.56
2023-05-14T05:46:48.739Z,98434.44
2023-05-14T05:49:15.217Z,98436.72
2023-05-14T05:51:41.726Z,98438.97
2023-05-14T05:54:08.218Z,98439.91
2023-05-14T05:56:34.733Z,98438.00
2023-05-14T05:59:01.207Z,98441.88
2023-05-14T06:01:27.971Z,98442.06
2023-05-14T06:03:58.568Z,98444.88
2023-05-14T06:06:25.067Z,98450.31
2023-05-14T06:08:53.892Z,98450.53
2023-05-14T06:11:22.036Z,98452.44
2023-05-14T06:13:50.847Z,98458.19
2023-05-14T06:16:17.699Z,98447.66
2023-05-14T06:18:44.209Z,98457.69
2023-05-14T06:21:12.490Z,98448.13
2023-05-14T06:23:38.959Z,98464.19
2023-05-14T06:26:06.999Z,98458.88
2023-05-14T06:28:34.156Z,98457.56
2023-05-14T06:31:02.786Z,98452.78
2023-05-14T06:33:32.126Z,98452.28
2023-05-14T06:35:59.419Z,98458.66
2023-05-14T06:38:28.127Z,98458.28
2023-05-14T06:40:54.681Z,98454.03
2023-05-14T06:43:23.857Z,98449.16
2023-05-14T06:45:59.589Z,98445.78
2023-05-14T06:48:32.397Z,98451.84
2023-05-14T06:51:00.841Z,98451.06
2023-05-14T06:53:28.530Z,98461.78
2023-05-14T06:55:59.182Z,98449.44
2023-05-14T06:58:25.682Z,98450.84
2023-05-14T07:00:52.448Z,98459.44
2023-05-14T07:03:19.757Z,98457.59
2023-05-14T07:05:48.018Z,98451.63
2023-05-14T07:08:16.573Z,98450.44
2023-05-14T07:10:43.037Z,98455.69
2023-05-14T07:13:11.935Z,98456.06
2023-05-14T07:15:39.117Z,98455.03
2023-05-14T07:18:05.666Z,98452.59
2023-05-14T07:20:33.864Z,98461.09
2023-05-14T07:23:01.564Z,98456.03
2023-05-14T07:25:28.036Z,98457.56
2023-05-14T07:27:55.889Z,98452.84
2023-05-14T07:30:22.584Z,98451.25
2023-05-14T07:32:52.199Z,98455.28
2023-05-14T07:35:18.994Z,98456.88
2023-05-14T07:37:45.462Z,98452.88
2023-05-14T07:40:12.131Z,98452.06
2023-05-14T07:42:40.799Z,98440.00
2023-05-14T07:45:08.761Z,98449.03
2023-05-14T07:47:35.440Z,98447.09
2023-05-14T07:50:03.997Z,98445.59
2023-05-14T07:52:31.573Z,98449.25
2023-05-14T07:54:58.057Z,98442.41
2023-05-14T07:57:26.296Z,98443.63
2023-05-14T07:59:52.788Z,98436.78
2023-05-14T08:02:22.519Z,98448.84
2023-05-14T08:04:50.436Z,98439.13
2023-05-14T08:07:17.304Z,98438.72
2023-05-14T08:09:48.469Z,98434.97
2023-05-14T08:12:16.820Z,98431.28
2023-05-14T08:14:44.993Z,98424.97
2023-05-14T08:17:11.571Z,98436.09
2023-05-14T08:19:39.172Z,98431.50
2023-05-14T08:22:05.999Z,98419.78
2023-05-14T08:24:32.644Z,98419.50
2023-05-14T08:26:59.205Z,98428.66
2023-05-14T08:29:25.923Z,98426.72
2023-05-14T08:31:52.729Z,98417.97
2023-05-14T08:34:19.208Z,98426.66
2023-05-14T08:36:48.044Z,98413.16
2023-05-14T08:39:14.787Z,98426.16
2023-05-14T08:41:42.255Z,98413.06
2023-05-14T08:44:50.411Z,98415.63
2023-05-14T08:47:26.908Z,98407.44
2023-05-14T08:50:00.818Z,98404.72
2023-05-14T08:52:30.732Z,98413.44
2023-05-14T08:54:58.106Z,98404.34
2023-05-14T08:57:26.585Z,98420.91
2023-05-14T08:59:53.743Z,98404.22
2023-05-14T09:02:25.656Z,98398.34
2023-05-14T09:05:00.316Z,98395.16
2023-05-14T09:07:27.435Z,98397.91
2023-05-14T09:09:56.497Z,98398.28
2023-05-14T09:12:25.774Z,98395.19
2023-05-14T09:14:53.266Z,98397.31
2023-05-14T09:17:23.227Z,98403.75
2023-05-14T09:19:52.906Z,98417.16
2023-05-14T09:22:19.973Z,98402.97
2023-05-14T09:24:46.773Z,98404.19
2023-05-14T09:27:22.209Z,98395.00
2023-05-14T09:29:54.401Z,98394.66
2023-05-14T09:32:21.359Z,98391.59
2023-05-14T09:34:48.104Z,98396.78
2023-05-14T09:37:17.109Z,98388.47
2023-05-14T09:39:45.692Z,98391.03
2023-05-14T09:42:12.180Z,98392.34
2023-05-14T09:44:39.270Z,98391.09
2023-05-14T09:47:06.031Z,98393.97
2023-05-14T09:49:36.752Z,98381.53
2023-05-14T09:52:03.698Z,98378.38
2023-05-14T09:54:30.201Z,98372.41
2023-05-14T09:56:56.670Z,98381.31
2023-05-14T09:59:23.462Z,98375.13
2023-05-14T10:01:49.927Z,98370.03
2023-05-14T10:04:16.472Z,98365.94
2023-05-14T10:06:44.014Z,98359.97
2023-05-14T10:09:12.539Z,98363.91
2023-05-14T10:11:39.116Z,98354.78
2023-05-14T10:14:09.921Z,98350.88
2023-05-14T10:16:46.762Z,98356.75
2023-05-14T10:19:15.570Z,98347.53
2023-05-14T10:21:44.091Z,98348.75
2023-05-14T10:24:15.603Z,98348.63
2023-05-14T10:26:45.311Z,98342.44
2023-05-14T10:29:12.917Z,98349.97
2023-05-14T10:31:55.784Z,98368.81
2023-05-14T10:34:31.410Z,98338.53
2023-05-14T10:37:09.338Z,98339.38
2023-05-14T10:39:53.776Z,98336.31
2023-05-14T10:42:33.913Z,98347.06
2023-05-14T10:45:10.663Z,98339.63
2023-05-14T10:47:39.269Z,98335.66
2023-05-14T10:50:09.398Z,98342.59
2023-05-14T10:52:37.641Z,98338.41
2023-05-14T10:55:11.218Z,98338.31
2023-05-14T10:57:40.040Z,98332.22
2023-05-14T11:00:08.954Z,98322.50
2023-05-14T11:02:40.426Z,98326.63
2023-05-14T11:05:15.467Z,98318.94
2023-05-14T11:08:07.817Z,98318.09
2023-05-14T11:10:34.306Z,98319.28
2023-05-14T11:13:00.786Z,98317.25
2023-05-14T11:15:29.340Z,98306.78
2023-05-14T11:17:57.199Z,98305.50
2023-05-14T11:20:24.251Z,98304.34
2023-05-14T11:22:54.738Z,98295.47
2023-05-14T11:25:22.863Z,98293.47
2023-05-14T11:27:58.363Z,98290.75
2023-05-14T11:30:26.260Z,98295.56
2023-05-14T11:32:54.236Z,98291.97
2023-05-14T11:35:20.823Z,98294.06
2023-05-14T11:37:51.656Z,98291.59
2023-05-14T11:40:18.769Z,98296.75
2023-05-14T11:42:46.157Z,98295.00
2023-05-14T11:45:26.008Z,98290.94
2023-05-14T11:48:01.351Z,98294.69
2023-05-14T11:50:28.170Z,98289.22
2023-05-14T11:53:01.727Z,98281.19
2023-05-14T11:55:28.694Z,98287.88
2023-05-14T11:57:55.168Z,98275.81
2023-05-14T12:00:25.608Z,98271.91
2023-05-14T12:02:52.271Z,98272.06
2023-05-14T12:05:20.363Z,98268.09
2023-05-14T12:11:31.983Z,98259.19
2023-05-14T12:14:01.425Z,98260.38
2023-05-14T12:16:31.446Z,98257.38
2023-05-14T12:19:01.751Z,98253.78
2023-05-14T12:21:28.960Z,98249.97
2023-05-14T12:23:59.399Z,98256.94
2023-05-14T12:26:26.285Z,98245.56
2023-05-14T12:28:59.536Z,98240.22
2023-05-14T12:31:32.906Z,98243.38
2023-05-14T12:33:59.922Z,98241.66
2023-05-14T12:36:26.345Z,98248.66
2023-05-14T12:39:00.805Z,98260.63
2023-05-14T12:41:27.662Z,98263.13
2023-05-14T12:43:54.128Z,98254.22
2023-05-14T12:46:20.614Z,98248.34
2023-05-14T12:48:47.096Z,98254.28
2023-05-14T12:51:13.543Z,98255.28
2023-05-14T12:53:39.981Z,98248.59
2023-05-14T12:56:06.581Z,98250.06
2023-05-14T12:58:33.012Z,98239.44
2023-05-14T13:00:59.540Z,98239.84
2023-05-14T13:03:26.585Z,98246.25
2023-05-14T13:05:53.343Z,98228.69
2023-05-14T13:08:21.513Z,98230.22
2023-05-14T13:10:48.063Z,98227.47
2023-05-14T13:13:17.571Z,98219.59
2023-05-14T13:15:46.589Z,98213.34
2023-05-14T13:18:13.767Z,98220.47
2023-05-14T13:20:42.439Z,98219.97
2023-05-14T13:23:09.623Z,98221.88
2023-05-14T13:25:36.057Z,98220.06
2023-05-14T13:28:02.571Z,98215.66
2023-05-14T13:30:29.709Z,98224.38
2023-05-14T13:32:56.173Z,98208.41
2023-05-14T13:35:22.889Z,98220.44
2023-05-14T13:37:49.582Z,98216.31
2023-05-14T13:40:16.886Z,98214.94
2023-05-14T13:42:43.359Z,98212.91
2023-05-14T13:45:10.138Z,98218.69
2023-05-14T13:47:36.658Z,98223.72
2023-05-14T13:50:03.250Z,98217.66
2023-05-14T13:52:29.679Z,98210.28
2023-05-14T13:54:56.478Z,98211.22
2023-05-14T13:57:23.059Z,98204.41
2023-05-14T13:59:49.519Z,98210.81
2023-05-14T14:02:15.988Z,98200.78
2023-05-14T14:04:42.440Z,98198.56
2023-05-14T14:07:09.085Z,98196.75
2023-05-14T14:09:36.846Z,98191.78
2023-05-14T14:12:03.950Z,98199.81
2023-05-14T14:14:30.427Z,98194.13
2023-05-14T14:16:56.843Z,98183.06
2023-05-14T14:19:23.755Z,98186.09
2023-05-14T14:24:21.929Z,98181.66
2023-05-14T14:26:48.366Z,98192.94
2023-05-14T14:29:14.876Z,98189.72
2023-05-14T14:31:41.406Z,98182.13
2023-05-14T14:34:07.914Z,98180.91
2023-05-14T14:36:34.378Z,98174.91
2023-05-14T14:39:00.823Z,98178.09
2023-05-14T14:41:27.357Z,98172.91
2023-05-14T14:43:53.842Z,98166.06
2023-05-14T14:46:20.354Z,98164.06
2023-05-14T14:48:46.873Z,98162.88
2023-05-14T14:51:13.350Z,98165.22
2023-05-14T14:53:40.425Z,98154.78
2023-05-14T14:56:06.929Z,98154.03
2023-05-14T14:58:33.361Z,98151.66
2023-05-14T15:01:00.226Z,98156.84
2023-05-14T15:03:27.001Z,98154.44
2023-05-14T15:05:53.856Z,98143.94
2023-05-14T15:08:22.675Z,98143.09
2023-05-14T15:10:49.151Z,98143.72
2023-05-14T15:13:15.632Z,98143.31
2023-05-14T15:15:42.114Z,98137.50
2023-05-14T15:18:08.638Z,98142.56
2023-05-14T15:20:35.187Z,98141.47
2023-05-14T15:23:01.630Z,98139.03
2023-05-14T15:25:28.289Z,98143.09
2023-05-14T15:27:54.739Z,98139.38
2023-05-14T15:30:21.183Z,98133.47
2023-05-14T15:32:47.669Z,98124.63
2023-05-14T15:35:14.184Z,98125.00
2023-05-14T15:37:42.017Z,98118.50
2023-05-14T15:40:09.071Z,98115.19
2023-05-14T15:42:39.749Z,98112.78
2023-05-14T15:45:06.398Z,98107.44
2023-05-14T15:47:32.930Z,98105.47
2023-05-14T15:49:59.857Z,98098.16
2023-05-14T15:52:26.482Z,98096.88
2023-05-14T15:54:54.156Z,98089.63
2023-05-14T15:57:20.585Z,98089.63
2023-05-14T15:59:47.134Z,98090.59
2023-05-14T16:02:13.893Z,98091.25
2023-05-14T16:04:40.325Z,98092.66
2023-05-14T16:07:09.848Z,98098.22
2023-05-14T16:09:36.591Z,98102.22
2023-05-14T16:12:03.240Z,98107.75
2023-05-14T16:14:29.828Z,98094.94
2023-05-14T16:16:56.391Z,98103.75
2023-05-14T16:19:22.927Z,98105.22
2023-05-14T16:21:49.418Z,98107.09
2023-05-14T16:24:17.898Z,98106.28
2023-05-14T16:26:44.522Z,98112.69
2023-05-14T16:29:11.100Z,98120.78
2023-05-14T16:31:37.770Z,98127.63
2023-05-14T16:34:06.235Z,98115.00
2023-05-14T16:36:33.988Z,98118.34
2023-05-14T16:41:30.028Z,98136.84
2023-05-14T16:43:56.604Z,98132.06
2023-05-14T16:46:23.167Z,98138.88
2023-05-14T16:48:50.657Z,98132.84
2023-05-14T16:51:17.188Z,98140.06
2023-05-14T16:53:43.669Z,98138.03
2023-05-14T16:56:11.044Z,98131.66
2023-05-14T16:58:37.579Z,98134.41
2023-05-14T17:01:04.154Z,98130.81
2023-05-14T17:03:30.693Z,98128.88
2023-05-14T17:05:57.163Z,98115.06
2023-05-14T17:08:23.637Z,98100.00
2023-05-14T17:10:50.221Z,98091.41
2023-05-14T17:13:16.725Z,98097.19
2023-05-14T17:15:43.279Z,98082.53
2023-05-14T17:18:11.887Z,98078.84
2023-05-14T17:20:38.499Z,98074.19
2023-05-14T17:23:04.990Z,98080.91
2023-05-14T17:25:33.120Z,98071.78
2023-05-14T17:28:00.089Z,98073.78
2023-05-14T17:30:26.614Z,98073.28
2023-05-14T17:32:53.200Z,98061.38
2023-05-14T17:35:19.733Z,98063.56
2023-05-14T17:37:46.550Z,98060.44
2023-05-14T17:40:13.239Z,98068.28
2023-05-14T17:42:39.727Z,98054.66
2023-05-14T17:45:06.847Z,98055.84
2023-05-14T17:47:33.386Z,98045.56
2023-05-14T17:49:59.882Z,98046.63
2023-05-14T17:52:26.364Z,98062.81
2023-05-14T17:54:53.079Z,98076.81
2023-05-14T17:57:19.553Z,98076.81
2023-05-14T17:59:46.056Z,98080.44
2023-05-14T18:02:12.535Z,98068.53
2023-05-14T18:04:39.040Z,98073.09
2023-05-14T18:07:05.568Z,98079.91
2023-05-14T18:09:32.497Z,98071.41
2023-05-14T18:11:58.996Z,98073.88
2023-05-14T18:14:25.551Z,98081.38
2023-05-14T18:16:52.337Z,98073.53
2023-05-14T18:19:19.434Z,98077.69
2023-05-14T18:21:48.061Z,98072.38
2023-05-14T18:24:14.616Z,98073.56
2023-05-14T18:26:41.089Z,98073.91
2023-05-14T18:29:07.549Z,98071.78
2023-05-14T18:31:34.047Z,98067.28
2023-05-14T18:34:00.889Z,98071.59
2023-05-14T18:36:27.374Z,98071.50
2023-05-14T18:38:53.843Z,98070.00
2023-05-14T18:41:21.412Z,98072.38
2023-05-14T18:43:47.951Z,98076.66
2023-05-14T18:46:14.486Z,98081.00
2023-05-14T18:48:41.296Z,98079.91
2023-05-14T18:51:08.098Z,98068.66
2023-05-14T18:53:34.609Z,98072.56
2023-05-14T18:56:01.108Z,98073.47
2023-05-14T18:58:28.144Z,98075.44
2023-05-14T19:00:57.678Z,98078.56
2023-05-14T19:03:24.499Z,98072.44
2023-05-14T19:05:53.120Z,98072.38
2023-05-14T19:08:19.636Z,98075.47
2023-05-14T19:10:46.220Z,98076.28
2023-05-14T19:13:12.706Z,98073.94
2023-05-14T19:15:39.285Z,98074.78
2023-05-14T19:18:05.933Z,98069.47
2023-05-14T19:20:32.437Z,98082.22
2023-05-14T19:22:58.922Z,98082.22
2023-05-14T19:25:25.608Z,98083.03
2023-05-14T19:27:53.587Z,98082.56
2023-05-14T19:30:21.278Z,98072.19
2023-05-14T19:32:47.801Z,98076.94
2023-05-14T19:35:14.311Z,98091.50
2023-05-14T19:37:40.813Z,98077.66
2023-05-14T19:40:07.766Z,98079.34
2023-05-14T19:42:34.300Z,98080.19
2023-05-14T19:45:00.784Z,98079.03
2023-05-14T19:47:28.518Z,98085.97
2023-05-14T19:49:55.185Z,98083.56
2023-05-14T19:52:21.666Z,98084.16
2023-05-14T19:54:48.111Z,98083.19
2023-05-14T19:57:14.627Z,98081.94
2023-05-14T19:59:41.448Z,98068.03
2023-05-14T20:02:09.067Z,98084.16
2023-05-14T20:04:35.708Z,98070.13
2023-05-14T20:07:02.685Z,98081.63
2023-05-14T20:09:29.174Z,98070.56
2023-05-14T20:11:55.656Z,98073.09
2023-05-14T20:14:22.158Z,98075.16
2023-05-14T20:16:49.004Z,98067.97
2023-05-14T20:19:16.299Z,98067.59
2023-05-14T20:21:42.905Z,98072.66
2023-05-14T20:24:09.449Z,98065.56
2023-05-14T20:26:35.952Z,98069.41
2023-05-14T20:29:02.452Z,98063.34
2023-05-14T20:31:29.130Z,98059.44
2023-05-14T20:33:55.664Z,98061.84
2023-05-14T20:36:22.231Z,98057.72
2023-05-14T20:38:48.803Z,98058.00
2023-05-14T20:41:15.353Z,98050.44
2023-05-14T20:43:41.840Z,98060.47
2023-05-14T20:46:08.997Z,98058.00
2023-05-14T20:48:35.570Z,98054.47
2023-05-14T20:51:04.721Z,98059.75
2023-05-14T20:53:31.529Z,98053.38
2023-05-14T20:55:58.977Z,98060.28
2023-05-14T20:58:25.596Z,98050.34
2023-05-14T21:00:52.080Z,98042.91
2023-05-14T21:03:18.650Z,98050.41
2023-05-14T21:05:45.665Z,98043.66
2023-05-14T21:08:12.154Z,98040.47
2023-05-14T21:10:38.947Z,98049.16
2023-05-14T21:13:05.415Z,98034.91
2023-05-14T21:15:32.650Z,98039.66
2023-05-14T21:17:59.209Z,98037.78
2023-05-14T21:20:25.802Z,98031.75
2023-05-14T21:22:52.271Z,98020.63
2023-05-14T21:25:19.124Z,98027.28
2023-05-14T21:27:45.645Z,98029.38
2023-05-14T21:30:12.765Z,98031.59
2023-05-14T21:32:39.322Z,98031.53
2023-05-14T21:35:06.111Z,98029.00
2023-05-14T21:37:32.789Z,98028.84
2023-05-14T21:39:59.273Z,98028.31
2023-05-14T21:42:25.803Z,98025.31
2023-05-14T21:44:52.285Z,98022.63
2023-05-14T21:47:19.885Z,98028.88
2023-05-14T21:49:46.355Z,98034.59
2023-05-14T21:52:13.147Z,98026.25
2023-05-14T21:54:39.634Z,98020.22
2023-05-14T21:57:06.453Z,98018.91
2023-05-14T21:59:33.608Z,98003.47
2023-05-14T22:04:29.481Z,98014.66
2023-05-14T22:06:56.071Z,98013.41
2023-05-14T22:09:22.522Z,98011.88
2023-05-14T22:11:49.020Z,98012.31
2023-05-14T22:14:15.513Z,98009.41
2023-05-14T22:16:42.019Z,97999.44
2023-05-14T22:19:08.610Z,97998.72
2023-05-14T22:21:35.173Z,97998.78
2023-05-14T22:24:01.727Z,98004.19
2023-05-14T22:26:28.239Z,97993.94
2023-05-14T22:28:56.805Z,97993.06
2023-05-14T22:31:23.384Z,97990.44
2023-05-14T22:33:49.921Z,97982.47
2023-05-14T22:36:16.674Z,97994.69
2023-05-14T22:38:43.809Z,97990.50
2023-05-14T22:41:10.845Z,97991.97
2023-05-14T22:43:37.366Z,97983.94
2023-05-14T22:46:04.022Z,97989.78
2023-05-14T22:48:30.547Z,97980.34
2023-05-14T22:50:57.062Z,97980.72
2023-05-14T22:53:25.137Z,97977.38
2023-05-14T22:55:51.852Z,97977.81
2023-05-14T22:58:18.404Z,97972.09
2023-05-14T23:00:44.880Z,97979.19
2023-05-14T23:03:11.364Z,97972.16
2023-05-14T23:05:37.853Z,97976.97
2023-05-14T23:08:04.532Z,97966.88
2023-05-14T23:10:31.235Z,97965.91
2023-05-14T23:12:57.720Z,97961.22
2023-05-14T23:15:24.422Z,97967.25
2023-05-14T23:17:51.085Z,97970.25
2023-05-14T23:20:17.649Z,97969.75
2023-05-14T23:22:44.136Z,97961.41
2023-05-14T23:25:10.602Z,97961.69
2023-05-14T23:27:37.353Z,97965.06
2023-05-14T23:30:04.268Z,97960.53
2023-05-14T23:32:30.752Z,97965.78
2023-05-14T23:34:57.255Z,97955.22
2023-05-14T23:37:23.729Z,97943.34
2023-05-14T23:39:50.237Z,97944.84
2023-05-14T23:42:16.759Z,97942.56
2023-05-14T23:44:43.604Z,97936.44
2023-05-14T23:47:10.311Z,97927.28
2023-05-14T23:49:36.985Z,97926.03
2023-05-14T23:52:03.508Z,97932.84
2023-05-14T23:54:30.162Z,97931.66
2023-05-14T23:56:56.642Z,97927.13
2023-05-14T23:59:23.206Z,97920.84
